createdAt,value
2022-10-30T00:02:03.863Z,83.93
2022-10-30T00:04:34.221Z,84.13
2022-10-30T00:07:19.320Z,84.27
2022-10-30T00:10:11.232Z,84.57
2022-10-30T00:13:09.838Z,84.65
2022-10-30T00:15:54.338Z,84.62
2022-10-30T00:18:52.279Z,84.61
2022-10-30T00:21:26.879Z,84.51
2022-10-30T00:23:56.218Z,84.53
2022-10-30T00:26:42.175Z,84.59
2022-10-30T00:29:17.112Z,84.77
2022-10-30T00:31:54.189Z,84.79
2022-10-30T00:34:40.462Z,84.83
2022-10-30T00:37:22.081Z,84.93
2022-10-30T00:39:57.398Z,85.11
2022-10-30T00:42:39.352Z,85.28
2022-10-30T00:45:23.237Z,85.24
2022-10-30T00:48:13.149Z,84.96
2022-10-30T00:50:45.649Z,84.75
2022-10-30T00:53:32.219Z,84.49
2022-10-30T00:56:07.058Z,84.53
2022-10-30T00:58:46.598Z,84.70
2022-10-30T01:01:27.622Z,84.56
2022-10-30T01:04:03.358Z,84.53
2022-10-30T01:06:48.617Z,84.47
2022-10-30T01:09:37.177Z,84.72
2022-10-30T01:12:15.179Z,84.98
2022-10-30T01:15:06.868Z,85.16
2022-10-30T01:17:54.364Z,85.09
2022-10-30T01:21:39.098Z,84.99
2022-10-30T01:24:40.418Z,85.37
2022-10-30T01:27:59.780Z,85.66
2022-10-30T01:30:49.079Z,85.68
2022-10-30T01:33:41.408Z,85.71
2022-10-30T01:36:40.296Z,85.63
2022-10-30T01:39:41.365Z,85.43
2022-10-30T01:42:52.809Z,85.49
2022-10-30T01:45:59.758Z,85.40
2022-10-30T01:49:13.876Z,85.60
2022-10-30T01:52:39.417Z,85.70
2022-10-30T01:55:56.618Z,85.70
2022-10-30T01:58:58.959Z,85.71
2022-10-30T02:01:51.422Z,85.51
2022-10-30T02:04:43.997Z,85.35
2022-10-30T02:07:41.959Z,85.66
2022-10-30T02:10:21.417Z,85.50
2022-10-30T02:13:12.978Z,85.65
2022-10-30T02:15:50.697Z,86.11
2022-10-30T02:18:25.478Z,86.54
2022-10-30T02:20:59.017Z,86.70
2022-10-30T02:23:31.552Z,86.63
2022-10-30T02:26:21.766Z,86.49
2022-10-30T02:28:51.258Z,86.31
2022-10-30T02:31:33.521Z,86.33
2022-10-30T02:34:13.564Z,86.17
2022-10-30T02:36:43.164Z,86.16
2022-10-30T02:39:12.521Z,86.26
2022-10-30T02:42:06.161Z,86.63
2022-10-30T02:44:43.158Z,86.58
2022-10-30T02:47:30.262Z,86.47
2022-10-30T02:50:07.963Z,86.53
2022-10-30T02:52:59.613Z,86.51
2022-10-30T02:55:34.873Z,86.51
2022-10-30T02:58:32.195Z,86.53
2022-10-30T03:01:27.867Z,86.57
2022-10-30T03:04:08.135Z,86.54
2022-10-30T03:06:42.034Z,86.64
2022-10-30T03:09:18.054Z,86.61
2022-10-30T03:11:53.633Z,86.64
2022-10-30T03:14:32.025Z,86.78
2022-10-30T03:17:08.075Z,86.72
2022-10-30T03:19:37.405Z,86.67
2022-10-30T03:22:15.485Z,86.69
2022-10-30T03:24:44.292Z,86.79
2022-10-30T03:27:34.972Z,86.82
2022-10-30T03:30:10.074Z,87.01
2022-10-30T03:33:14.513Z,87.03
2022-10-30T03:35:58.021Z,86.84
2022-10-30T03:38:33.442Z,86.70
2022-10-30T03:41:13.742Z,86.75
2022-10-30T03:43:57.092Z,86.85
2022-10-30T03:46:39.252Z,86.94
2022-10-30T03:49:28.970Z,87.04
2022-10-30T03:52:26.443Z,87.01
2022-10-30T03:55:10.113Z,87.05
2022-10-30T03:57:56.553Z,87.35
2022-10-30T04:00:30.265Z,87.45
2022-10-30T04:03:12.515Z,87.38
2022-10-30T04:06:09.814Z,87.40
2022-10-30T04:08:44.754Z,87.33
2022-10-30T04:11:25.510Z,87.45
2022-10-30T04:14:19.036Z,87.59
2022-10-30T04:17:23.073Z,87.38
2022-10-30T04:20:02.822Z,87.49
2022-10-30T04:22:59.002Z,87.72
2022-10-30T04:26:36.413Z,87.75
2022-10-30T04:29:05.392Z,87.73
2022-10-30T04:31:35.297Z,87.58
2022-10-30T04:34:10.192Z,87.61
2022-10-30T04:36:45.395Z,87.74
2022-10-30T04:39:17.763Z,87.81
2022-10-30T04:41:56.354Z,87.85
2022-10-30T04:44:33.162Z,88.10
2022-10-30T04:47:22.377Z,88.21
2022-10-30T04:50:44.721Z,88.33
2022-10-30T04:53:37.543Z,88.40
2022-10-30T04:56:23.753Z,88.40
2022-10-30T04:59:00.002Z,88.38
2022-10-30T05:01:34.397Z,88.40
2022-10-30T05:04:14.240Z,88.38
2022-10-30T05:07:18.473Z,88.21
2022-10-30T05:10:20.733Z,88.38
2022-10-30T05:13:00.562Z,88.38
2022-10-30T05:15:51.675Z,88.32
2022-10-30T05:18:33.332Z,88.36
2022-10-30T05:21:06.867Z,88.27
2022-10-30T05:23:42.853Z,88.55
2022-10-30T05:26:11.542Z,88.57
2022-10-30T05:29:02.594Z,88.36
2022-10-30T05:31:54.953Z,88.06
2022-10-30T05:34:28.894Z,88.07
2022-10-30T05:37:20.932Z,88.02
2022-10-30T05:40:19.733Z,88.40
2022-10-30T05:42:53.572Z,88.70
2022-10-30T05:45:30.454Z,88.77
2022-10-30T05:48:19.449Z,88.71
2022-10-30T05:50:57.461Z,88.75
2022-10-30T05:53:37.822Z,88.73
2022-10-30T05:56:06.924Z,88.74
2022-10-30T05:58:43.212Z,88.88
2022-10-30T06:01:30.064Z,88.88
2022-10-30T06:03:58.743Z,88.80
2022-10-30T06:06:44.854Z,88.81
2022-10-30T06:09:13.315Z,88.70
2022-10-30T06:11:42.113Z,88.67
2022-10-30T06:14:10.722Z,88.71
2022-10-30T06:16:39.615Z,88.85
2022-10-30T06:19:08.112Z,89.04
2022-10-30T06:21:36.793Z,89.10
2022-10-30T06:24:06.139Z,89.05
2022-10-30T06:26:51.693Z,88.96
2022-10-30T06:29:20.515Z,88.78
2022-10-30T06:31:49.274Z,88.58
2022-10-30T06:34:17.921Z,88.70
2022-10-30T06:37:04.027Z,88.93
2022-10-30T06:39:32.756Z,89.02
2022-10-30T06:42:01.493Z,89.03
2022-10-30T06:44:30.233Z,88.92
2022-10-30T06:46:58.827Z,88.98
2022-10-30T06:49:44.832Z,89.00
2022-10-30T06:52:30.714Z,88.91
2022-10-30T06:54:59.415Z,88.70
2022-10-30T06:57:28.085Z,88.38
2022-10-30T07:00:14.223Z,88.26
2022-10-30T07:02:43.092Z,88.16
2022-10-30T07:05:11.863Z,88.09
2022-10-30T07:07:58.997Z,88.27
2022-10-30T07:10:44.718Z,88.50
2022-10-30T07:13:30.373Z,88.52
2022-10-30T07:16:00.158Z,88.45
2022-10-30T07:18:28.793Z,88.28
2022-10-30T07:20:57.673Z,88.12
2022-10-30T07:23:26.273Z,88.01
2022-10-30T07:25:57.290Z,88.00
2022-10-30T07:28:29.673Z,88.01
2022-10-30T07:31:01.243Z,88.00
2022-10-30T07:33:29.992Z,87.92
2022-10-30T07:36:02.432Z,87.75
2022-10-30T07:38:52.882Z,87.56
2022-10-30T07:41:22.263Z,87.36
2022-10-30T07:43:50.754Z,87.09
2022-10-30T07:46:19.201Z,86.83
2022-10-30T07:49:05.285Z,86.63
2022-10-30T07:51:34.373Z,86.49
2022-10-30T07:54:02.918Z,86.15
2022-10-30T07:56:31.573Z,85.76
2022-10-30T07:59:00.103Z,85.68
2022-10-30T08:01:28.934Z,85.54
2022-10-30T08:03:57.450Z,85.26
2022-10-30T08:06:27.249Z,85.03
2022-10-30T08:08:56.072Z,84.74
2022-10-30T08:11:24.691Z,84.40
2022-10-30T08:14:10.721Z,83.93
2022-10-30T08:16:39.590Z,83.64
2022-10-30T08:19:08.117Z,83.58
2022-10-30T08:21:36.792Z,83.24
2022-10-30T08:24:22.540Z,83.01
2022-10-30T08:26:54.170Z,82.81
2022-10-30T08:29:22.823Z,82.64
2022-10-30T08:31:51.853Z,82.51
2022-10-30T08:34:20.680Z,82.43
2022-10-30T08:36:51.581Z,82.33
2022-10-30T08:39:21.079Z,82.14
2022-10-30T08:41:49.792Z,82.05
2022-10-30T08:44:18.370Z,82.06
2022-10-30T08:47:04.555Z,81.88
2022-10-30T08:49:33.070Z,81.67
2022-10-30T08:52:19.071Z,81.52
2022-10-30T08:54:47.561Z,81.31
2022-10-30T08:57:16.173Z,81.06
2022-10-30T09:00:02.206Z,80.85
2022-10-30T09:02:31.008Z,80.66
2022-10-30T09:04:59.702Z,80.27
2022-10-30T09:07:28.842Z,79.80
2022-10-30T09:09:57.752Z,79.62
2022-10-30T09:12:26.453Z,79.62
2022-10-30T09:14:54.951Z,79.42
2022-10-30T09:17:32.394Z,79.19
2022-10-30T09:20:17.992Z,78.97
2022-10-30T09:22:46.634Z,78.79
2022-10-30T09:25:15.414Z,78.60
2022-10-30T09:27:44.153Z,78.34
2022-10-30T09:30:14.466Z,78.20
2022-10-30T09:33:03.312Z,77.96
2022-10-30T09:35:33.353Z,77.74
2022-10-30T09:38:02.418Z,77.58
2022-10-30T09:41:47.135Z,77.77
2022-10-30T09:44:41.472Z,77.48
2022-10-30T09:47:39.452Z,77.30
2022-10-30T09:50:26.552Z,77.32
2022-10-30T09:53:34.127Z,77.14
2022-10-30T09:56:30.896Z,76.46
2022-10-30T09:59:39.012Z,76.09
2022-10-30T10:02:38.759Z,75.40
2022-10-30T10:05:38.552Z,75.27
2022-10-30T10:08:19.832Z,75.14
2022-10-30T10:11:17.376Z,75.12
2022-10-30T10:13:59.076Z,74.79
2022-10-30T10:16:37.092Z,74.54
2022-10-30T10:19:28.983Z,73.81
2022-10-30T10:22:20.731Z,72.97
2022-10-30T10:24:49.913Z,72.91
2022-10-30T10:28:01.094Z,73.01
2022-10-30T10:30:49.634Z,72.77
2022-10-30T10:33:58.734Z,72.17
2022-10-30T10:37:21.615Z,71.83
2022-10-30T10:40:41.553Z,71.68
2022-10-30T10:44:11.953Z,71.33
2022-10-30T10:47:50.672Z,71.08
2022-10-30T10:50:32.062Z,70.92
2022-10-30T10:53:33.955Z,70.96
2022-10-30T10:56:04.333Z,70.65
2022-10-30T10:58:57.752Z,70.42
2022-10-30T11:01:46.866Z,69.95
2022-10-30T11:04:40.815Z,69.28
2022-10-30T11:07:21.534Z,69.04
2022-10-30T11:09:54.694Z,68.33
2022-10-30T11:12:36.700Z,67.79
2022-10-30T11:15:58.602Z,67.92
2022-10-30T11:18:27.172Z,67.75
2022-10-30T11:21:14.072Z,67.57
2022-10-30T11:23:50.150Z,67.33
2022-10-30T11:26:18.993Z,67.29
2022-10-30T11:29:11.455Z,67.30
2022-10-30T11:32:05.161Z,66.53
2022-10-30T11:34:40.052Z,66.24
2022-10-30T11:37:33.859Z,65.96
2022-10-30T11:40:24.612Z,65.82
2022-10-30T11:43:01.080Z,65.60
2022-10-30T11:45:43.604Z,65.49
2022-10-30T11:48:32.133Z,65.10
2022-10-30T11:51:04.096Z,65.51
2022-10-30T11:53:49.593Z,65.35
2022-10-30T11:56:23.782Z,65.10
2022-10-30T11:59:00.114Z,64.74
2022-10-30T12:01:28.731Z,64.44
2022-10-30T12:04:12.902Z,64.52
2022-10-30T12:06:41.755Z,65.10
2022-10-30T12:09:22.976Z,65.07
2022-10-30T12:11:51.573Z,65.05
2022-10-30T12:14:24.791Z,65.04
2022-10-30T12:17:16.645Z,64.89
2022-10-30T12:20:05.213Z,64.72
2022-10-30T12:22:35.872Z,64.46
2022-10-30T12:25:18.813Z,64.33
2022-10-30T12:27:47.921Z,64.18
2022-10-30T12:30:21.354Z,64.08
2022-10-30T12:33:12.894Z,64.25
2022-10-30T12:35:51.553Z,63.52
2022-10-30T12:38:58.074Z,63.35
2022-10-30T12:41:43.499Z,63.34
2022-10-30T12:44:24.732Z,63.16
2022-10-30T12:47:20.852Z,63.05
2022-10-30T12:51:08.633Z,62.55
2022-10-30T12:54:20.752Z,62.66
2022-10-30T12:57:11.312Z,62.83
2022-10-30T12:59:54.733Z,62.88
2022-10-30T13:03:09.882Z,62.94
2022-10-30T13:05:47.809Z,62.93
2022-10-30T13:08:37.493Z,63.57
2022-10-30T13:11:22.473Z,64.23
2022-10-30T13:13:54.935Z,64.29
2022-10-30T13:16:40.817Z,64.04
2022-10-30T13:19:28.553Z,63.64
2022-10-30T13:22:07.792Z,63.53
2022-10-30T13:24:49.111Z,63.12
2022-10-30T13:27:42.233Z,62.91
2022-10-30T13:30:23.934Z,62.75
2022-10-30T13:33:13.993Z,62.44
2022-10-30T13:36:00.013Z,62.30
2022-10-30T13:39:00.856Z,62.34
2022-10-30T13:41:58.836Z,62.26
2022-10-30T13:44:56.212Z,62.41
2022-10-30T13:47:34.392Z,62.66
2022-10-30T13:50:17.732Z,62.75
2022-10-30T13:52:55.576Z,62.53
2022-10-30T13:55:44.072Z,62.98
2022-10-30T13:58:41.736Z,63.07
2022-10-30T14:01:56.301Z,63.12
2022-10-30T14:04:40.515Z,63.32
2022-10-30T14:07:23.833Z,63.57
2022-10-30T14:10:05.835Z,63.68
2022-10-30T14:13:13.802Z,63.72
2022-10-30T14:16:38.276Z,64.02
2022-10-30T14:19:16.600Z,64.16
2022-10-30T14:21:56.073Z,64.53
2022-10-30T14:24:35.296Z,65.01
2022-10-30T14:27:04.708Z,65.35
2022-10-30T14:29:52.034Z,65.83
2022-10-30T14:32:24.140Z,66.30
2022-10-30T14:34:53.475Z,66.85
2022-10-30T14:37:24.772Z,67.35
2022-10-30T14:39:56.592Z,67.70
2022-10-30T14:42:54.401Z,67.99
2022-10-30T14:45:59.282Z,68.28
2022-10-30T14:49:35.592Z,68.87
2022-10-30T14:52:31.353Z,69.15
2022-10-30T14:55:02.991Z,69.40
2022-10-30T14:57:55.175Z,69.97
2022-10-30T15:00:23.854Z,70.30
2022-10-30T15:03:20.666Z,70.59
2022-10-30T15:05:56.377Z,70.93
2022-10-30T15:08:40.539Z,71.41
2022-10-30T15:11:58.112Z,71.72
2022-10-30T15:14:53.031Z,72.04
2022-10-30T15:17:49.291Z,72.61
2022-10-30T15:20:32.833Z,72.85
2022-10-30T15:23:34.833Z,73.10
2022-10-30T15:26:24.735Z,73.38
2022-10-30T15:28:56.012Z,73.59
2022-10-30T15:31:42.345Z,73.73
2022-10-30T15:34:23.993Z,74.11
2022-10-30T15:37:14.124Z,74.28
2022-10-30T15:40:19.749Z,74.54
2022-10-30T15:42:51.351Z,74.71
2022-10-30T15:45:31.356Z,74.96
2022-10-30T15:48:26.758Z,75.28
2022-10-30T15:51:23.672Z,75.62
2022-10-30T15:54:19.572Z,76.14
2022-10-30T15:57:27.475Z,76.21
2022-10-30T16:00:08.424Z,76.29
2022-10-30T16:02:37.277Z,76.44
2022-10-30T16:05:24.814Z,76.79
2022-10-30T16:07:58.241Z,77.28
2022-10-30T16:10:33.155Z,77.94
2022-10-30T16:13:04.314Z,78.28
2022-10-30T16:15:40.713Z,78.53
2022-10-30T16:18:23.831Z,78.54
2022-10-30T16:21:03.252Z,78.78
2022-10-30T16:23:42.832Z,78.90
2022-10-30T16:26:36.323Z,79.37
2022-10-30T16:29:27.172Z,79.67
2022-10-30T16:31:56.213Z,79.73
2022-10-30T16:34:32.284Z,79.87
2022-10-30T16:37:05.939Z,79.68
2022-10-30T16:39:54.083Z,79.90
2022-10-30T16:42:26.613Z,80.00
2022-10-30T16:45:18.033Z,80.16
2022-10-30T16:51:06.563Z,80.54
2022-10-30T16:53:35.842Z,80.60
2022-10-30T16:56:29.346Z,80.60
2022-10-30T16:59:30.918Z,80.54
2022-10-30T17:02:08.219Z,80.46
2022-10-30T17:04:37.075Z,80.48
2022-10-30T17:07:27.676Z,80.51
2022-10-30T17:09:58.667Z,80.47
2022-10-30T17:12:30.014Z,80.50
2022-10-30T17:15:14.306Z,80.31
2022-10-30T17:18:16.271Z,80.28
2022-10-30T17:20:45.134Z,80.64
2022-10-30T17:23:31.355Z,80.71
2022-10-30T17:26:08.844Z,80.74
2022-10-30T17:28:39.534Z,80.70
2022-10-30T17:31:38.895Z,80.51
2022-10-30T17:34:21.007Z,80.16
2022-10-30T17:36:49.804Z,80.03
2022-10-30T17:39:18.844Z,80.02
2022-10-30T17:41:48.375Z,79.97
2022-10-30T17:44:22.154Z,79.89
2022-10-30T17:46:52.949Z,79.82
2022-10-30T17:49:30.933Z,79.64
2022-10-30T17:52:22.005Z,79.45
2022-10-30T17:54:51.235Z,79.45
2022-10-30T17:57:19.852Z,79.39
2022-10-30T17:59:49.293Z,79.43
2022-10-30T18:02:22.432Z,79.62
2022-10-30T18:04:52.953Z,79.70
2022-10-30T18:07:21.894Z,79.78
2022-10-30T18:09:50.772Z,79.82
2022-10-30T18:12:19.714Z,79.90
2022-10-30T18:14:48.745Z,79.84
2022-10-30T18:17:17.795Z,79.80
2022-10-30T18:19:46.544Z,79.83
2022-10-30T18:22:15.655Z,79.96
2022-10-30T18:25:01.732Z,80.10
2022-10-30T18:27:30.353Z,80.14
2022-10-30T18:29:58.978Z,80.17
2022-10-30T18:32:27.559Z,80.39
2022-10-30T18:34:56.594Z,80.36
2022-10-30T18:37:25.254Z,80.44
2022-10-30T18:39:53.775Z,80.33
2022-10-30T18:42:22.372Z,80.54
2022-10-30T18:44:50.974Z,80.69
2022-10-30T18:47:19.533Z,80.79
2022-10-30T18:49:48.235Z,80.90
2022-10-30T18:52:16.812Z,80.87
2022-10-30T18:55:02.571Z,80.83
2022-10-30T18:57:50.292Z,81.14
2022-10-30T19:00:58.065Z,81.52
2022-10-30T19:03:27.710Z,81.69
2022-10-30T19:05:56.534Z,81.90
2022-10-30T19:08:25.096Z,81.87
2022-10-30T19:11:24.009Z,81.70
2022-10-30T19:13:54.953Z,81.90
2022-10-30T19:18:38.653Z,82.40
2022-10-30T19:21:26.576Z,82.24
2022-10-30T19:23:56.853Z,82.18
2022-10-30T19:26:25.614Z,82.49
2022-10-30T19:28:54.612Z,82.90
2022-10-30T19:31:23.492Z,83.00
2022-10-30T19:33:56.158Z,83.13
2022-10-30T19:36:34.295Z,83.18
2022-10-30T19:39:18.214Z,83.44
2022-10-30T19:42:05.265Z,83.38
2022-10-30T19:44:34.053Z,83.48
2022-10-30T19:47:02.816Z,83.55
2022-10-30T19:49:32.114Z,83.50
2022-10-30T19:52:00.815Z,83.63
2022-10-30T19:54:46.909Z,83.80
2022-10-30T19:57:15.699Z,83.81
2022-10-30T19:59:44.464Z,84.35
2022-10-30T20:02:13.535Z,84.82
2022-10-30T20:04:42.463Z,84.98
2022-10-30T20:07:28.251Z,85.09
2022-10-30T20:09:57.162Z,84.99
2022-10-30T20:12:26.021Z,84.95
2022-10-30T20:14:54.853Z,84.92
2022-10-30T20:17:23.614Z,85.14
2022-10-30T20:19:52.525Z,85.20
2022-10-30T20:22:25.656Z,85.20
2022-10-30T20:24:56.834Z,85.21
2022-10-30T20:27:26.918Z,85.28
2022-10-30T20:29:55.650Z,85.11
2022-10-30T20:32:24.516Z,85.31
2022-10-30T20:34:53.336Z,85.60
2022-10-30T20:37:22.217Z,85.64
2022-10-30T20:39:51.450Z,85.75
2022-10-30T20:42:37.580Z,85.71
2022-10-30T20:45:07.669Z,85.70
2022-10-30T20:47:36.410Z,85.96
2022-10-30T20:50:05.672Z,86.17
2022-10-30T20:52:52.330Z,86.44
2022-10-30T20:55:21.643Z,86.45
2022-10-30T20:57:50.731Z,86.65
2022-10-30T21:00:37.271Z,86.76
2022-10-30T21:03:07.150Z,86.72
2022-10-30T21:06:02.170Z,86.73
2022-10-30T21:08:32.312Z,86.68
2022-10-30T21:11:06.969Z,86.33
2022-10-30T21:13:37.350Z,86.31
2022-10-30T21:16:09.120Z,86.67
2022-10-30T21:18:37.873Z,86.45
2022-10-30T21:21:11.910Z,86.53
2022-10-30T21:23:40.670Z,86.66
2022-10-30T21:26:12.200Z,86.75
2022-10-30T21:28:41.629Z,86.88
2022-10-30T21:31:14.150Z,87.00
2022-10-30T21:33:42.889Z,87.03
2022-10-30T21:36:29.299Z,86.92
2022-10-30T21:38:59.530Z,86.98
2022-10-30T21:41:46.011Z,87.01
2022-10-30T21:44:15.836Z,87.10
2022-10-30T21:46:44.710Z,87.56
2022-10-30T21:49:15.073Z,87.80
2022-10-30T21:52:01.075Z,87.65
2022-10-30T21:54:29.931Z,87.71
2022-10-30T21:56:58.763Z,87.73
2022-10-30T21:59:27.511Z,87.61
2022-10-30T22:01:56.438Z,87.64
2022-10-30T22:04:25.190Z,87.84
2022-10-30T22:06:53.871Z,87.99
2022-10-30T22:09:23.070Z,87.98
2022-10-30T22:11:51.665Z,87.96
2022-10-30T22:14:20.434Z,88.03
2022-10-30T22:16:49.521Z,88.21
2022-10-30T22:19:35.510Z,88.23
2022-10-30T22:22:04.312Z,88.28
2022-10-30T22:24:32.910Z,88.37
2022-10-30T22:27:01.691Z,88.34
2022-10-30T22:29:30.570Z,88.21
2022-10-30T22:32:16.991Z,88.02
2022-10-30T22:35:03.398Z,87.82
2022-10-30T22:37:49.572Z,87.60
2022-10-30T22:40:18.171Z,87.74
2022-10-30T22:42:46.850Z,87.80
2022-10-30T22:45:33.133Z,87.79
2022-10-30T22:48:19.320Z,87.81
2022-10-30T22:51:13.421Z,87.79
2022-10-30T22:53:46.881Z,87.69
2022-10-30T22:56:21.981Z,87.78
2022-10-30T22:59:18.300Z,87.99
2022-10-30T23:01:53.679Z,88.05
2022-10-30T23:04:28.639Z,88.23
2022-10-30T23:07:02.670Z,88.16
2022-10-30T23:09:36.619Z,88.17
2022-10-30T23:12:06.318Z,88.13
2022-10-30T23:14:41.652Z,88.05
2022-10-30T23:17:15.571Z,87.88
2022-10-30T23:19:50.671Z,87.73
2022-10-30T23:22:24.570Z,87.75
2022-10-30T23:25:05.991Z,87.74
2022-10-30T23:27:40.551Z,87.70
2022-10-30T23:30:16.859Z,87.58
2022-10-30T23:32:54.680Z,87.59
2022-10-30T23:35:29.690Z,87.74
2022-10-30T23:38:06.651Z,87.66
2022-10-30T23:40:44.653Z,87.87
2022-10-30T23:43:21.183Z,88.14
2022-10-30T23:45:55.670Z,88.34
2022-10-30T23:48:31.610Z,88.38
2022-10-30T23:51:06.479Z,88.24
2022-10-30T23:53:40.736Z,88.02
2022-10-30T23:56:19.480Z,87.93
2022-10-30T23:59:07.181Z,87.90
